Port Hedland Bedout Island, Australia
Current Conditions -  °F | °C
As of 9:30 AM on Saturday 25 Oct 2014 (Local Time) from YPPD Reporting Station
Clear Clear  
Wind Chill: 100°   Ceiling: Unl
Heat Index: 100°   Visibility: 6mi
Dew Point: 48°   Wind: 12mph
Humidity: 17%   Direction: 150°SSE
Pressure: 29.91"   Gusts: NA
Location:  19.58°S, 119.1°E
Report Text: YPPD 250130Z AUTO 15010KT 9999 // NCD 38/09 Q1013
Loading
Personal Weather Stations






























Interactive Weather Map
Tropical Storm Tracking
New forecast layout! Learn more

10-Day Weather Forecast

Advertisements
Track Severe Weather on mobile